createdAt,value
2022-08-04T03:52:30.108Z,18.20
2022-08-04T05:34:28.820Z,20.00
2022-08-04T05:51:54.447Z,21.20
2022-08-04T06:10:29.597Z,22.20
2022-08-04T06:18:32.989Z,22.50
2022-08-04T06:21:16.402Z,22.70
2022-08-04T06:24:04.267Z,22.90
2022-08-04T06:30:14.967Z,23.20
2022-08-04T06:33:18.086Z,23.30
2022-08-04T06:36:53.834Z,23.50
2022-08-04T06:54:19.879Z,24.60
2022-08-04T06:56:49.120Z,24.80
2022-08-04T06:59:23.729Z,24.90
2022-08-04T07:08:03.085Z,25.10
2022-08-04T07:09:10.830Z,24.90
2022-08-04T07:10:33.818Z,25.40
2022-08-04T07:13:04.047Z,25.60
2022-08-04T07:15:35.873Z,25.60
2022-08-04T07:18:04.899Z,25.60
2022-08-04T07:20:35.600Z,25.80
2022-08-04T07:23:06.980Z,26.00
2022-08-04T07:26:00.991Z,26.20
2022-08-04T07:28:26.146Z,26.40
2022-08-04T07:31:01.305Z,26.60
2022-08-04T07:33:39.281Z,26.70
2022-08-04T07:39:47.997Z,26.90
2022-08-04T07:42:23.180Z,27.20
2022-08-04T07:44:50.446Z,27.40
2022-08-04T07:47:22.233Z,27.60
2022-08-04T07:49:56.164Z,27.50
2022-08-04T07:52:28.596Z,27.70
2022-08-04T07:54:56.406Z,27.90
2022-08-04T07:57:41.796Z,28.00
2022-08-04T08:00:14.940Z,28.10
2022-08-04T08:02:43.556Z,28.40
2022-08-04T08:05:15.082Z,28.60
2022-08-04T08:07:54.691Z,28.80
2022-08-04T08:10:22.160Z,29.10
2022-08-04T08:12:51.879Z,29.00
2022-08-04T08:15:20.051Z,29.20
2022-08-04T08:17:59.502Z,29.30
2022-08-04T08:20:30.378Z,29.30
2022-08-04T08:22:58.408Z,29.20
2022-08-04T08:25:26.090Z,29.20
2022-08-04T08:27:56.052Z,29.40
2022-08-04T08:30:25.272Z,29.20
2022-08-04T08:33:10.169Z,29.50
2022-08-04T08:35:59.114Z,29.60
2022-08-04T08:38:41.271Z,29.60
2022-08-04T08:41:39.550Z,30.00
2022-08-04T08:44:30.212Z,30.10
2022-08-04T08:48:05.410Z,30.30
2022-08-04T08:50:36.734Z,31.00
2022-08-04T08:53:28.742Z,31.70
2022-08-04T08:56:43.267Z,32.30
2022-08-04T08:59:34.858Z,33.00
2022-08-04T09:02:28.577Z,33.60
2022-08-04T09:05:13.982Z,34.40
2022-08-04T09:08:18.223Z,35.00
2022-08-04T09:10:50.897Z,35.40
2022-08-04T09:13:46.257Z,34.80
2022-08-04T09:16:45.640Z,34.60
2022-08-04T09:19:39.536Z,35.00
2022-08-04T09:22:13.473Z,35.80
2022-08-04T09:25:04.981Z,36.20
2022-08-04T09:27:40.243Z,36.40
2022-08-04T09:30:09.630Z,36.10
2022-08-04T09:32:39.323Z,35.80
2022-08-04T09:35:43.775Z,36.20
2022-08-04T09:38:33.322Z,37.10
2022-08-04T09:41:48.654Z,37.40
2022-08-04T09:44:53.027Z,37.50
2022-08-04T09:47:41.622Z,38.00
2022-08-04T09:50:35.839Z,37.40
2022-08-04T09:53:25.641Z,37.10
2022-08-04T09:56:10.989Z,37.50
2022-08-04T09:58:51.263Z,37.60
2022-08-04T10:01:24.974Z,38.20
2022-08-04T10:03:56.563Z,38.50
2022-08-04T10:06:41.913Z,39.00
2022-08-04T10:09:40.863Z,39.60
2022-08-04T10:12:27.527Z,39.10
2022-08-04T10:15:11.725Z,39.00
2022-08-04T10:17:54.387Z,39.40
2022-08-04T10:20:54.090Z,39.60
2022-08-04T10:23:56.034Z,39.30
2022-08-04T10:26:39.215Z,39.90
2022-08-04T10:29:12.649Z,39.70
2022-08-04T10:32:02.162Z,39.90
2022-08-04T10:34:36.490Z,40.40
2022-08-04T10:37:14.506Z,40.10
2022-08-04T10:40:12.742Z,40.20
2022-08-04T10:43:06.741Z,40.40
2022-08-04T10:46:27.287Z,40.90
2022-08-04T10:49:01.334Z,40.40
2022-08-04T10:51:58.911Z,40.10
2022-08-04T10:54:51.698Z,40.30
2022-08-04T10:57:29.808Z,40.00
2022-08-04T11:00:09.569Z,40.30
2022-08-04T11:02:57.694Z,40.60
2022-08-04T11:05:34.340Z,40.50
2022-08-04T11:08:25.309Z,41.00
2022-08-04T11:11:07.938Z,41.10
2022-08-04T11:13:47.356Z,41.10
2022-08-04T11:16:21.089Z,41.20
2022-08-04T11:19:13.509Z,40.80
2022-08-04T11:21:47.571Z,41.10
2022-08-04T11:24:37.414Z,41.60
2022-08-04T11:27:11.817Z,41.90
2022-08-04T11:29:50.666Z,41.80
2022-08-04T11:32:24.713Z,41.80
2022-08-04T11:35:00.334Z,40.70
2022-08-04T11:37:33.794Z,40.60
2022-08-04T11:40:24.336Z,40.50
2022-08-04T11:42:57.190Z,41.00
2022-08-04T11:45:32.411Z,41.00
2022-08-04T11:48:07.341Z,41.20
2022-08-04T11:50:39.049Z,41.50
2022-08-04T11:53:07.046Z,41.20
2022-08-04T11:56:07.656Z,41.50
2022-08-04T11:58:22.249Z,41.70
2022-08-04T12:01:21.675Z,41.40
2022-08-04T12:04:13.495Z,41.20
2022-08-04T12:07:04.681Z,41.00
2022-08-04T12:10:07.110Z,41.30
2022-08-04T12:13:06.098Z,41.50
2022-08-04T12:16:00.037Z,41.50
2022-08-04T12:18:36.630Z,41.50
2022-08-04T12:21:11.147Z,42.10
2022-08-04T12:23:44.908Z,41.90
2022-08-04T12:26:21.139Z,42.50
2022-08-04T12:29:09.676Z,42.80
2022-08-04T12:31:45.909Z,43.00
2022-08-04T12:34:54.995Z,42.40
2022-08-04T12:38:02.846Z,42.50
2022-08-04T12:40:41.084Z,41.50
2022-08-04T12:43:30.196Z,41.90
2022-08-04T12:46:00.788Z,41.60
2022-08-04T12:48:28.412Z,42.20
2022-08-04T12:50:57.342Z,42.30
2022-08-04T12:53:51.228Z,42.60
2022-08-04T12:56:26.716Z,43.00
2022-08-04T12:59:00.502Z,43.20
2022-08-04T13:02:08.200Z,43.00
2022-08-04T13:04:20.679Z,43.10
2022-08-04T13:07:03.333Z,43.80
2022-08-04T13:09:34.039Z,43.10
2022-08-04T13:12:13.109Z,42.60
2022-08-04T13:14:45.093Z,42.30
2022-08-04T13:17:12.566Z,42.50
2022-08-04T13:19:41.556Z,42.40
2022-08-04T13:22:09.345Z,41.80
2022-08-04T13:24:57.166Z,42.00
2022-08-04T13:27:27.098Z,42.20
2022-08-04T13:30:03.899Z,42.60
2022-08-04T13:32:31.728Z,42.90
2022-08-04T13:35:01.754Z,43.00
2022-08-04T13:37:36.089Z,42.90
2022-08-04T13:40:10.071Z,42.60
2022-08-04T13:42:38.800Z,42.50
2022-08-04T13:45:07.877Z,42.60
2022-08-04T13:47:38.317Z,42.00
2022-08-04T13:50:16.885Z,41.60
2022-08-04T13:52:44.973Z,42.00
2022-08-04T13:55:25.554Z,41.40
2022-08-04T13:58:02.385Z,41.70
2022-08-04T14:00:47.970Z,41.90
2022-08-04T14:03:24.992Z,42.20
2022-08-04T14:06:10.506Z,42.00
2022-08-04T14:08:47.769Z,42.10
2022-08-04T14:12:08.878Z,42.00
2022-08-04T14:14:27.884Z,41.90
2022-08-04T14:17:20.315Z,41.20
2022-08-04T14:19:47.897Z,41.10
2022-08-04T14:22:29.871Z,41.20
2022-08-04T14:25:15.305Z,41.10
2022-08-04T14:27:45.374Z,41.20
2022-08-04T14:30:21.789Z,40.80
2022-08-04T14:34:02.188Z,40.80
2022-08-04T14:35:58.931Z,40.70
2022-08-04T14:38:49.952Z,40.40
2022-08-04T14:41:19.067Z,40.00
2022-08-04T14:43:50.040Z,39.70
2022-08-04T14:46:17.430Z,39.20
2022-08-04T14:49:12.101Z,38.80
2022-08-04T14:51:41.940Z,38.50
2022-08-04T14:54:18.113Z,38.10
2022-08-04T14:56:54.639Z,37.70
2022-08-04T14:59:22.269Z,37.30
2022-08-04T15:02:00.036Z,37.20
2022-08-04T15:04:28.890Z,36.90
2022-08-04T15:06:55.966Z,36.60
2022-08-04T15:09:23.177Z,36.60
2022-08-04T15:11:50.177Z,36.20
2022-08-04T15:14:37.708Z,36.00
2022-08-04T15:17:07.347Z,35.90
2022-08-04T15:19:38.945Z,35.60
2022-08-04T15:22:06.871Z,35.20
2022-08-04T15:24:44.485Z,35.10
2022-08-04T15:27:19.971Z,34.90
2022-08-04T15:29:59.490Z,35.00
2022-08-04T15:32:31.716Z,35.10
2022-08-04T15:35:09.226Z,35.30
2022-08-04T15:38:00.585Z,35.40
2022-08-04T15:40:45.535Z,35.30
2022-08-04T15:43:21.492Z,35.50
2022-08-04T15:46:37.224Z,35.40
2022-08-04T15:48:40.454Z,35.20
2022-08-04T15:51:15.091Z,35.00
2022-08-04T15:54:01.465Z,34.90
2022-08-04T15:56:29.779Z,34.90
2022-08-04T15:58:57.719Z,34.70
2022-08-04T16:01:25.339Z,34.70
2022-08-04T16:03:58.979Z,34.60
2022-08-04T16:06:29.597Z,34.40
2022-08-04T16:09:04.811Z,34.30
2022-08-04T16:11:37.270Z,34.20
2022-08-04T16:14:04.786Z,34.20
2022-08-04T16:16:41.138Z,34.10
2022-08-04T16:19:36.504Z,34.10
2022-08-04T16:22:04.923Z,33.90
2022-08-04T16:24:38.637Z,33.70
2022-08-04T16:27:09.551Z,33.60
2022-08-04T16:29:48.087Z,33.40
2022-08-04T16:32:23.817Z,33.30
2022-08-04T16:35:05.077Z,33.20
2022-08-04T16:37:42.399Z,33.00
2022-08-04T16:40:36.581Z,33.00
2022-08-04T16:43:07.293Z,32.90
2022-08-04T16:45:54.737Z,32.90
2022-08-04T16:48:30.514Z,32.80
2022-08-04T16:51:05.021Z,32.80
2022-08-04T16:53:53.506Z,32.80
2022-08-04T16:56:34.542Z,32.70
2022-08-04T16:59:11.039Z,32.50
2022-08-04T17:01:49.603Z,32.50
2022-08-04T17:04:22.531Z,32.40
2022-08-04T17:06:49.616Z,32.40
2022-08-04T17:09:28.410Z,32.40
2022-08-04T17:11:57.043Z,32.30
2022-08-04T17:14:29.525Z,32.30
2022-08-04T17:17:11.112Z,32.10
2022-08-04T17:19:38.554Z,32.10
2022-08-04T17:22:14.434Z,32.00
2022-08-04T17:24:42.022Z,31.90
2022-08-04T17:28:09.473Z,31.90
2022-08-04T17:29:58.908Z,31.80
2022-08-04T17:32:26.072Z,31.70
2022-08-04T17:35:00.415Z,31.80
2022-08-04T17:37:39.704Z,31.80
2022-08-04T17:40:18.559Z,31.70
2022-08-04T17:44:03.506Z,31.60
2022-08-04T17:46:48.186Z,31.60
2022-08-04T17:49:20.519Z,31.50
2022-08-04T17:52:44.694Z,31.30
2022-08-04T17:58:23.218Z,31.20
2022-08-04T18:05:21.605Z,31.00
2022-08-04T18:08:45.443Z,30.80
2022-08-04T18:10:52.077Z,30.70
2022-08-04T18:13:42.877Z,30.60
2022-08-04T18:16:27.276Z,30.50
2022-08-04T18:29:39.575Z,30.10
2022-08-04T18:32:09.135Z,30.00
2022-08-04T18:34:39.834Z,29.90
2022-08-04T18:38:05.085Z,29.80
2022-08-04T18:41:15.534Z,29.70
2022-08-04T18:44:00.194Z,29.60
2022-08-04T18:46:27.460Z,29.50
2022-08-04T19:06:25.908Z,28.60
2022-08-04T19:09:52.184Z,28.40
2022-08-04T19:16:16.866Z,28.40
2022-08-04T19:19:05.564Z,28.40
2022-08-04T19:22:01.035Z,28.30
2022-08-04T19:28:08.614Z,28.20
2022-08-04T19:34:08.959Z,28.10
2022-08-04T19:37:05.558Z,28.10
2022-08-04T19:39:41.759Z,28.10
2022-08-04T19:43:23.108Z,28.10
2022-08-04T19:50:05.138Z,28.00
2022-08-04T19:52:52.150Z,27.90
2022-08-04T19:58:26.419Z,27.70
2022-08-04T20:01:55.646Z,27.60
2022-08-04T20:26:34.787Z,26.80
2022-08-04T22:27:55.949Z,24.50
